Terminal Aerodrome Forecast
Issued by NWS

Home | Current Version | Previous Version | Text Only | Print | Product List | Glossary On
Versions: 1 2 3 4 5 6 7 8 9 10 11 12 13 14 15
746
FTUS45 KTFX 202335
TAFGTF
TAF
KGTF 202335Z 2100/2124 25015G25KT P6SM VCSH SCT025 OVC040
     FM210200 23015G22KT P6SM SCT050 SCT120
     FM211500 24020G30KT P6SM FEW050 SCT150=

USA.gov is the U.S. government's official web portal to all federal, state and local government web resources and services.